Airfield :
LOGIN :

Register | Disclaimer

   EN    FR    IT 

 










Legend :    VFR   Marginal VFR   IFR   Intensive IFR   Very Intensive IFR
Visi :
Ceiling :
>= 8 km
>= 3000ft
5 to 8 km
1000 to 3000 ft
1500m to 5 km
500 to 1000 ft
800 to 1500m
200 to 500 ft
< 800m
< 200 ft
Symbols :   Thunderstorms  Fog  Heavy snow  Heavy precipitations  Wind > 20 kt
SIGMETs :     Misc.  Thunderstorms  Icing  Turbulence  Mountain Waves  Volcanic Ashes






- Airport Elevation : 1416 ft
- IATA code : ZRH


LSZH - Zurich

CURRENT METAR :
  • 161020Z 05013KT 010V090 9999 FEW040 06/M04 Q1021 NOSIG

EXPIRED METARs :
  • 160950Z 08011KT 040V110 9999 FEW040 07/M03 Q1021 NOSIG
  • 160920Z 05011KT 020V080 9999 FEW035 05/M04 Q1022 NOSIG
  • 160850Z 06011KT 020V090 9999 FEW035 05/M04 Q1022 NOSIG
  • 160820Z 05010KT 020V080 9999 FEW030 05/M03 Q1022 NOSIG
  • 160750Z 04009KT 9999 FEW020 04/M03 Q1022 NOSIG

TAF TAF LSZH
Valid from the 16 at 09:00 until the 17 at 15:00 UTC


160825Z 1609/1715 05012KT 9999 FEW035 TX10/1615Z TNM01/1706Z TX09/1715Z
PROB40
TEMPO 1611/1616 06015G25KT
BECMG 1616/1618 CAVOK
BECMG 1619/1622 04006KT
BECMG 1700/1703 9999 SCT012
PROB40 1701/1709 9999 BKN010
ATIS : +41 43 816 2295 (DEP) +41 43 816 2294 (ARR)



MET'MAP, your aeronautical weather chart ! - Copyright ORBIFLY December 2007 - Disclaimer

ORBIFLY MET'MAP TEAM :

Programming & Development : Alexandra Zaïnal
Concept & original design : Baudouin d'Aumeries
Assistance for programming : Marc-Olivier Méhu
Technical & hardware support : Manuel Goepfert

Contact : metmap@orbifly.com




SOURCES & CREDITS :

   NOAA